createdAt,value
2023-02-22T00:01:51.533Z,3.28
2023-02-22T00:07:17.680Z,3.32
2023-02-22T00:12:21.322Z,3.31
2023-02-22T00:31:46.691Z,3.24
2023-02-22T00:37:16.269Z,3.29
2023-02-22T00:42:19.876Z,3.38
2023-02-22T00:47:23.600Z,3.41
2023-02-22T00:52:28.594Z,3.32
2023-02-22T00:57:32.101Z,3.25
2023-02-22T01:04:00.169Z,3.22
2023-02-22T01:09:05.048Z,3.22
2023-02-22T01:14:10.089Z,3.18
2023-02-22T01:19:14.220Z,3.13
2023-02-22T01:24:19.058Z,3.11
2023-02-22T01:29:22.859Z,3.14
2023-02-22T01:34:26.613Z,3.13
2023-02-22T01:46:37.456Z,2.95
2023-02-22T02:14:05.696Z,2.67
2023-02-22T02:30:04.495Z,2.47
2023-02-22T02:44:09.888Z,2.39
2023-02-22T02:49:22.857Z,2.37
2023-02-22T03:40:59.582Z,2.13
2023-02-22T03:47:18.977Z,2.03
2023-02-22T03:52:23.834Z,1.99
2023-02-22T03:57:38.538Z,1.99
2023-02-22T04:02:42.470Z,2.00
2023-02-22T04:07:46.720Z,2.01
2023-02-22T04:12:51.276Z,1.99
2023-02-22T04:17:55.457Z,1.99
2023-02-22T04:22:58.864Z,1.99
2023-02-22T04:28:20.847Z,2.00
2023-02-22T04:42:48.063Z,1.95
2023-02-22T04:56:29.011Z,1.88
2023-02-22T05:01:38.068Z,1.82
2023-02-22T05:06:44.577Z,1.82
2023-02-22T05:18:52.836Z,1.79
2023-02-22T05:35:06.535Z,1.72
2023-02-22T05:47:12.895Z,1.65
2023-02-22T05:52:49.291Z,1.65
2023-02-22T05:58:19.175Z,1.68
2023-02-22T06:10:25.657Z,1.54
2023-02-22T06:23:42.052Z,1.57
2023-02-22T06:28:47.301Z,1.55
2023-02-22T06:35:06.800Z,1.59
2023-02-22T06:40:11.573Z,1.68
2023-02-22T06:46:37.723Z,1.70
2023-02-22T06:51:41.523Z,1.75
2023-02-22T06:57:35.014Z,1.76
2023-02-22T07:02:57.889Z,1.81
2023-02-22T07:37:38.900Z,2.02
2023-02-22T07:43:37.282Z,2.05
2023-02-22T07:48:40.856Z,2.07
2023-02-22T07:54:35.958Z,2.01
2023-02-22T07:59:39.671Z,2.03
2023-02-22T08:04:43.398Z,2.11
2023-02-22T08:09:47.024Z,2.16
2023-02-22T08:16:07.746Z,2.21
2023-02-22T08:21:37.079Z,2.30
2023-02-22T08:28:25.720Z,2.38
2023-02-22T08:34:20.588Z,2.45
2023-02-22T08:39:24.325Z,2.44
2023-02-22T08:51:18.186Z,2.37
2023-02-22T08:56:23.538Z,2.46
2023-02-22T09:01:37.684Z,2.53
2023-02-22T09:14:59.981Z,2.60
2023-02-22T09:21:00.350Z,2.57
2023-02-22T09:42:59.053Z,3.01
2023-02-22T09:56:51.806Z,3.13
2023-02-22T10:03:17.078Z,3.28
2023-02-22T10:08:46.347Z,3.34
2023-02-22T10:13:58.596Z,3.36
2023-02-22T10:26:31.325Z,3.41
2023-02-22T10:40:12.942Z,3.38
2023-02-22T10:59:58.713Z,3.40
2023-02-22T11:12:26.544Z,3.46
2023-02-22T11:17:35.265Z,3.53
2023-02-22T11:22:43.009Z,3.61
2023-02-22T11:27:47.444Z,3.65
2023-02-22T11:32:58.028Z,3.69
2023-02-22T11:38:29.860Z,3.76
2023-02-22T11:43:33.975Z,3.73
2023-02-22T11:48:46.073Z,3.71
2023-02-22T11:54:25.943Z,3.75
2023-02-22T12:00:02.215Z,3.78
2023-02-22T12:05:29.479Z,3.78
2023-02-22T12:10:43.667Z,3.75
2023-02-22T12:16:29.266Z,3.79
2023-02-22T12:21:40.975Z,3.76
2023-02-22T12:26:52.162Z,3.64
2023-02-22T12:32:59.433Z,3.63
2023-02-22T12:38:44.638Z,3.60
2023-02-22T12:43:56.464Z,3.61
2023-02-22T12:49:14.157Z,3.58
2023-02-22T12:54:49.110Z,3.61
2023-02-22T13:00:02.869Z,3.67
2023-02-22T13:05:07.277Z,3.77
2023-02-22T13:10:36.023Z,3.93
2023-02-22T13:16:00.092Z,4.00
2023-02-22T13:21:34.559Z,4.01
2023-02-22T13:28:00.126Z,4.09
2023-02-22T13:34:13.458Z,3.96
2023-02-22T13:40:02.754Z,3.88
2023-02-22T13:52:08.648Z,3.91
2023-02-22T14:04:41.744Z,3.70
2023-02-22T14:09:56.418Z,3.66
2023-02-22T14:15:28.129Z,3.54
2023-02-22T14:20:40.332Z,3.49
2023-02-22T14:25:46.499Z,3.42
2023-02-22T14:31:37.862Z,3.36
2023-02-22T14:36:52.251Z,3.29
2023-02-22T14:42:41.034Z,3.22
2023-02-22T14:48:04.218Z,3.25
2023-02-22T14:53:41.501Z,3.32
2023-02-22T14:59:15.551Z,3.29
2023-02-22T15:04:31.828Z,3.20
2023-02-22T15:09:37.887Z,3.24
2023-02-22T15:14:44.911Z,3.28
2023-02-22T15:19:50.343Z,3.25
2023-02-22T15:25:08.609Z,3.22
2023-02-22T15:30:29.374Z,3.17
2023-02-22T15:35:34.493Z,3.04
2023-02-22T15:40:43.458Z,2.89
2023-02-22T15:45:47.924Z,2.81
2023-02-22T15:51:14.718Z,2.77
2023-02-22T15:56:31.496Z,2.69
2023-02-22T16:01:48.604Z,2.62
2023-02-22T16:07:17.389Z,2.53
2023-02-22T16:12:21.817Z,2.46
2023-02-22T16:17:49.308Z,2.42
2023-02-22T16:23:00.181Z,2.42
2023-02-22T16:28:26.854Z,2.40
2023-02-22T16:33:34.277Z,2.38
2023-02-22T16:38:39.908Z,2.33
2023-02-22T16:43:46.644Z,2.29
2023-02-22T16:48:51.076Z,2.21
2023-02-22T16:53:56.834Z,2.15
2023-02-22T16:59:11.799Z,2.16
2023-02-22T17:04:20.423Z,2.13
2023-02-22T17:09:24.970Z,2.14
2023-02-22T17:14:34.953Z,2.20
2023-02-22T17:19:39.091Z,2.21
2023-02-22T17:25:24.410Z,2.16
2023-02-22T17:30:28.487Z,2.10
2023-02-22T17:35:59.622Z,2.11
2023-02-22T17:48:28.082Z,2.00
2023-02-22T17:54:23.407Z,1.94
2023-02-22T18:06:23.223Z,1.91
2023-02-22T18:12:18.876Z,1.93
2023-02-22T18:17:23.212Z,1.95
2023-02-22T18:22:54.075Z,1.91
2023-02-22T18:27:58.017Z,1.86
2023-02-22T18:33:05.625Z,1.76
2023-02-22T18:38:14.741Z,1.65
2023-02-22T18:50:16.952Z,1.59
2023-02-22T18:57:37.244Z,1.65
2023-02-22T19:10:13.999Z,1.71
2023-02-22T19:15:19.118Z,1.68
2023-02-22T19:25:41.875Z,1.79
2023-02-22T19:30:46.453Z,1.77
2023-02-22T19:35:50.029Z,1.71
2023-02-22T19:49:30.961Z,1.65
2023-02-22T19:56:03.117Z,1.67
2023-02-22T20:01:33.421Z,1.77
2023-02-22T20:06:43.296Z,1.76
2023-02-22T20:11:50.098Z,1.68
2023-02-22T20:16:57.953Z,1.64
2023-02-22T20:22:01.865Z,1.59
2023-02-22T20:27:08.167Z,1.53
2023-02-22T20:32:38.732Z,1.54
2023-02-22T20:37:44.218Z,1.48
2023-02-22T20:42:48.368Z,1.47
2023-02-22T20:47:53.331Z,1.49
2023-02-22T21:08:35.543Z,1.38
2023-02-22T21:13:40.516Z,1.33
2023-02-22T21:18:44.823Z,1.21
2023-02-22T21:23:51.931Z,1.13
2023-02-22T21:37:18.374Z,0.88
2023-02-22T21:42:22.133Z,0.85
2023-02-22T22:02:07.483Z,0.61
2023-02-22T22:07:44.893Z,0.57
2023-02-22T22:12:50.782Z,0.56
2023-02-22T22:18:06.159Z,0.50
2023-02-22T22:23:09.729Z,0.46
2023-02-22T22:29:39.014Z,0.43
2023-02-22T22:43:38.826Z,0.38
2023-02-22T22:48:47.376Z,0.33
2023-02-22T22:53:52.280Z,0.29
2023-02-22T23:06:04.048Z,0.23
2023-02-22T23:11:09.561Z,0.16
2023-02-22T23:16:13.369Z,0.17
2023-02-22T23:21:18.437Z,0.13
2023-02-22T23:42:44.611Z,-0.01
2023-02-22T23:47:56.289Z,-0.09
2023-02-22T23:53:03.992Z,-0.13
2023-02-22T23:58:07.738Z,-0.16
